sensor_id;sensor_type;location;lat;lon;timestamp;pressure;altitude;pressure_sealevel;temperature;humidity
39954;BME280;25631;51.516;-0.470;2022-08-27T00:01:38;101624.00;;;19.00;36.53
39954;BME280;25631;51.516;-0.470;2022-08-27T00:04:15;101623.21;;;18.75;36.60
39954;BME280;25631;51.516;-0.470;2022-08-27T00:06:51;101623.57;;;18.61;36.65
39954;BME280;25631;51.516;-0.470;2022-08-27T00:09:28;101624.31;;;18.80;36.79
39954;BME280;25631;51.516;-0.470;2022-08-27T00:12:05;101620.59;;;18.68;36.91
39954;BME280;25631;51.516;-0.470;2022-08-27T00:14:42;101617.62;;;18.42;36.97
39954;BME280;25631;51.516;-0.470;2022-08-27T00:17:18;101615.21;;;18.73;37.10
39954;BME280;25631;51.516;-0.470;2022-08-27T00:19:55;101612.84;;;18.43;37.21
39954;BME280;25631;51.516;-0.470;2022-08-27T00:22:31;101611.86;;;18.73;37.32
39954;BME280;25631;51.516;-0.470;2022-08-27T00:25:09;101610.75;;;18.38;37.40
39954;BME280;25631;51.516;-0.470;2022-08-27T00:27:46;101610.77;;;18.37;37.37
39954;BME280;25631;51.516;-0.470;2022-08-27T00:30:22;101608.70;;;18.40;37.41
39954;BME280;25631;51.516;-0.470;2022-08-27T00:32:59;101606.99;;;18.60;37.41
39954;BME280;25631;51.516;-0.470;2022-08-27T00:35:35;101605.18;;;18.40;37.46
39954;BME280;25631;51.516;-0.470;2022-08-27T00:38:12;101605.39;;;18.37;37.47
39954;BME280;25631;51.516;-0.470;2022-08-27T00:40:49;101604.58;;;18.36;37.43
39954;BME280;25631;51.516;-0.470;2022-08-27T00:43:28;101601.79;;;18.65;37.41
39954;BME280;25631;51.516;-0.470;2022-08-27T00:46:22;101601.46;;;18.31;37.43
39954;BME280;25631;51.516;-0.470;2022-08-27T00:49:07;101601.19;;;18.40;37.44
39954;BME280;25631;51.516;-0.470;2022-08-27T00:51:45;101600.12;;;18.25;37.48
39954;BME280;25631;51.516;-0.470;2022-08-27T00:54:24;101600.43;;;18.20;37.53
39954;BME280;25631;51.516;-0.470;2022-08-27T00:57:02;101601.07;;;18.35;37.55
39954;BME280;25631;51.516;-0.470;2022-08-27T00:59:41;101598.56;;;18.01;37.56
39954;BME280;25631;51.516;-0.470;2022-08-27T01:02:18;101597.62;;;18.38;37.58
39954;BME280;25631;51.516;-0.470;2022-08-27T01:04:58;101594.74;;;18.04;37.60
39954;BME280;25631;51.516;-0.470;2022-08-27T01:07:38;101590.34;;;17.94;37.71
39954;BME280;25631;51.516;-0.470;2022-08-27T01:10:18;101591.57;;;17.95;37.77
39954;BME280;25631;51.516;-0.470;2022-08-27T01:12:55;101592.54;;;18.14;37.91
39954;BME280;25631;51.516;-0.470;2022-08-27T01:15:32;101591.03;;;17.98;38.03
39954;BME280;25631;51.516;-0.470;2022-08-27T01:18:09;101591.25;;;17.73;38.08
39954;BME280;25631;51.516;-0.470;2022-08-27T01:20:50;101593.37;;;18.23;38.09
39954;BME280;25631;51.516;-0.470;2022-08-27T01:23:36;101595.04;;;17.82;38.28
39954;BME280;25631;51.516;-0.470;2022-08-27T01:26:15;101596.21;;;18.13;38.38
39954;BME280;25631;51.516;-0.470;2022-08-27T01:28:52;101593.62;;;17.93;38.46
39954;BME280;25631;51.516;-0.470;2022-08-27T01:31:28;101593.71;;;17.89;38.56
39954;BME280;25631;51.516;-0.470;2022-08-27T01:34:05;101593.16;;;17.82;38.66
39954;BME280;25631;51.516;-0.470;2022-08-27T01:36:41;101592.42;;;17.84;38.69
39954;BME280;25631;51.516;-0.470;2022-08-27T01:39:18;101594.77;;;17.56;38.64
39954;BME280;25631;51.516;-0.470;2022-08-27T01:42:02;101593.76;;;17.86;38.67
39954;BME280;25631;51.516;-0.470;2022-08-27T01:44:45;101588.89;;;17.70;38.68
39954;BME280;25631;51.516;-0.470;2022-08-27T01:47:25;101585.10;;;17.95;38.74
39954;BME280;25631;51.516;-0.470;2022-08-27T01:50:06;101584.94;;;17.76;38.71
39954;BME280;25631;51.516;-0.470;2022-08-27T01:52:43;101586.61;;;17.85;38.75
39954;BME280;25631;51.516;-0.470;2022-08-27T01:55:22;101587.55;;;17.75;38.78
39954;BME280;25631;51.516;-0.470;2022-08-27T01:57:59;101587.06;;;17.57;38.73
39954;BME280;25631;51.516;-0.470;2022-08-27T02:00:39;101586.48;;;18.08;38.70
39954;BME280;25631;51.516;-0.470;2022-08-27T02:03:16;101586.54;;;17.82;38.69
39954;BME280;25631;51.516;-0.470;2022-08-27T02:05:53;101584.85;;;17.66;38.69
39954;BME280;25631;51.516;-0.470;2022-08-27T02:08:29;101586.96;;;17.82;38.64
39954;BME280;25631;51.516;-0.470;2022-08-27T02:11:06;101591.66;;;17.74;38.70
39954;BME280;25631;51.516;-0.470;2022-08-27T02:13:43;101593.08;;;17.68;38.76
39954;BME280;25631;51.516;-0.470;2022-08-27T02:16:19;101593.16;;;17.77;38.76
39954;BME280;25631;51.516;-0.470;2022-08-27T02:18:55;101591.48;;;17.89;38.75
39954;BME280;25631;51.516;-0.470;2022-08-27T02:21:32;101594.44;;;17.79;38.70
39954;BME280;25631;51.516;-0.470;2022-08-27T02:24:09;101593.02;;;17.55;38.67
39954;BME280;25631;51.516;-0.470;2022-08-27T02:26:45;101594.69;;;17.72;38.62
39954;BME280;25631;51.516;-0.470;2022-08-27T02:29:22;101595.62;;;17.80;38.62
39954;BME280;25631;51.516;-0.470;2022-08-27T02:31:58;101595.04;;;17.54;38.71
39954;BME280;25631;51.516;-0.470;2022-08-27T02:34:35;101595.12;;;17.42;38.77
39954;BME280;25631;51.516;-0.470;2022-08-27T02:37:11;101593.51;;;17.71;38.79
39954;BME280;25631;51.516;-0.470;2022-08-27T02:39:48;101596.03;;;17.47;38.87
39954;BME280;25631;51.516;-0.470;2022-08-27T02:42:24;101598.51;;;17.79;38.82
39954;BME280;25631;51.516;-0.470;2022-08-27T02:45:00;101597.69;;;17.57;38.86
39954;BME280;25631;51.516;-0.470;2022-08-27T02:47:37;101594.22;;;17.45;38.92
39954;BME280;25631;51.516;-0.470;2022-08-27T02:50:14;101593.16;;;17.38;38.90
39954;BME280;25631;51.516;-0.470;2022-08-27T02:52:51;101593.69;;;17.34;38.98
39954;BME280;25631;51.516;-0.470;2022-08-27T02:55:28;101591.84;;;17.64;38.98
39954;BME280;25631;51.516;-0.470;2022-08-27T02:58:05;101594.55;;;17.64;39.02
39954;BME280;25631;51.516;-0.470;2022-08-27T03:00:41;101595.02;;;17.65;39.02
39954;BME280;25631;51.516;-0.470;2022-08-27T03:03:18;101595.27;;;17.57;39.01
39954;BME280;25631;51.516;-0.470;2022-08-27T03:05:54;101598.43;;;17.57;39.03
39954;BME280;25631;51.516;-0.470;2022-08-27T03:08:31;101597.01;;;17.40;39.00
39954;BME280;25631;51.516;-0.470;2022-08-27T03:11:08;101596.77;;;17.34;38.97
39954;BME280;25631;51.516;-0.470;2022-08-27T03:13:44;101597.76;;;17.72;38.98
39954;BME280;25631;51.516;-0.470;2022-08-27T03:16:21;101596.54;;;17.63;39.00
39954;BME280;25631;51.516;-0.470;2022-08-27T03:18:57;101593.84;;;17.36;38.95
39954;BME280;25631;51.516;-0.470;2022-08-27T03:21:34;101589.19;;;17.46;38.99
39954;BME280;25631;51.516;-0.470;2022-08-27T03:24:11;101588.86;;;17.73;39.04
39954;BME280;25631;51.516;-0.470;2022-08-27T03:26:47;101591.40;;;17.53;39.10
39954;BME280;25631;51.516;-0.470;2022-08-27T03:29:23;101593.00;;;17.67;39.11
39954;BME280;25631;51.516;-0.470;2022-08-27T03:32:00;101592.22;;;17.55;39.15
39954;BME280;25631;51.516;-0.470;2022-08-27T03:34:36;101595.48;;;17.45;39.11
39954;BME280;25631;51.516;-0.470;2022-08-27T03:37:13;101592.44;;;17.57;39.10
39954;BME280;25631;51.516;-0.470;2022-08-27T03:39:49;101591.73;;;17.77;39.07
39954;BME280;25631;51.516;-0.470;2022-08-27T03:42:26;101590.95;;;17.55;39.05
39954;BME280;25631;51.516;-0.470;2022-08-27T03:45:03;101592.80;;;17.61;39.09
39954;BME280;25631;51.516;-0.470;2022-08-27T03:47:40;101591.30;;;17.65;39.11
39954;BME280;25631;51.516;-0.470;2022-08-27T03:50:16;101592.90;;;17.54;39.13
39954;BME280;25631;51.516;-0.470;2022-08-27T03:52:53;101592.03;;;17.65;39.10
39954;BME280;25631;51.516;-0.470;2022-08-27T03:55:29;101592.68;;;17.41;39.11
39954;BME280;25631;51.516;-0.470;2022-08-27T03:58:06;101593.30;;;17.49;39.12
39954;BME280;25631;51.516;-0.470;2022-08-27T04:00:43;101594.79;;;17.48;39.12
39954;BME280;25631;51.516;-0.470;2022-08-27T04:03:20;101594.70;;;17.63;39.12
39954;BME280;25631;51.516;-0.470;2022-08-27T04:05:56;101597.03;;;17.57;39.22
39954;BME280;25631;51.516;-0.470;2022-08-27T04:08:33;101597.25;;;17.41;39.27
39954;BME280;25631;51.516;-0.470;2022-08-27T04:11:10;101596.86;;;17.35;39.34
39954;BME280;25631;51.516;-0.470;2022-08-27T04:13:46;101594.85;;;17.34;39.32
39954;BME280;25631;51.516;-0.470;2022-08-27T04:16:22;101594.54;;;17.17;39.38
39954;BME280;25631;51.516;-0.470;2022-08-27T04:18:59;101596.23;;;17.38;39.42
39954;BME280;25631;51.516;-0.470;2022-08-27T04:21:35;101596.46;;;17.35;39.48
39954;BME280;25631;51.516;-0.470;2022-08-27T04:24:12;101596.27;;;17.45;39.52
39954;BME280;25631;51.516;-0.470;2022-08-27T04:26:48;101596.62;;;17.24;39.59
39954;BME280;25631;51.516;-0.470;2022-08-27T04:29:25;101595.83;;;17.17;39.54
39954;BME280;25631;51.516;-0.470;2022-08-27T04:32:02;101597.28;;;17.27;39.49
39954;BME280;25631;51.516;-0.470;2022-08-27T04:34:40;101596.47;;;17.44;39.51
39954;BME280;25631;51.516;-0.470;2022-08-27T04:37:16;101596.03;;;17.18;39.55
39954;BME280;25631;51.516;-0.470;2022-08-27T04:39:52;101596.51;;;17.14;39.59
39954;BME280;25631;51.516;-0.470;2022-08-27T04:42:29;101599.24;;;17.17;39.59
39954;BME280;25631;51.516;-0.470;2022-08-27T04:45:06;101598.31;;;17.08;39.70
39954;BME280;25631;51.516;-0.470;2022-08-27T04:47:43;101600.13;;;17.24;39.71
39954;BME280;25631;51.516;-0.470;2022-08-27T04:50:19;101604.52;;;16.86;39.82
39954;BME280;25631;51.516;-0.470;2022-08-27T04:52:56;101607.38;;;17.08;39.90
39954;BME280;25631;51.516;-0.470;2022-08-27T04:55:32;101607.65;;;16.69;40.01
39954;BME280;25631;51.516;-0.470;2022-08-27T04:58:09;101606.13;;;17.14;40.05
39954;BME280;25631;51.516;-0.470;2022-08-27T05:00:47;101604.04;;;16.78;40.04
39954;BME280;25631;51.516;-0.470;2022-08-27T05:03:24;101607.25;;;16.89;40.13
39954;BME280;25631;51.516;-0.470;2022-08-27T05:06:02;101606.90;;;16.72;40.18
39954;BME280;25631;51.516;-0.470;2022-08-27T05:08:39;101607.29;;;16.82;40.22
39954;BME280;25631;51.516;-0.470;2022-08-27T05:11:17;101608.33;;;16.87;40.27
39954;BME280;25631;51.516;-0.470;2022-08-27T05:13:54;101611.04;;;16.75;40.36
39954;BME280;25631;51.516;-0.470;2022-08-27T05:16:30;101612.23;;;16.47;40.42
39954;BME280;25631;51.516;-0.470;2022-08-27T05:19:10;101614.42;;;16.60;40.41
39954;BME280;25631;51.516;-0.470;2022-08-27T05:21:49;101612.40;;;16.66;40.45
39954;BME280;25631;51.516;-0.470;2022-08-27T05:24:26;101612.25;;;16.54;40.52
39954;BME280;25631;51.516;-0.470;2022-08-27T05:27:03;101613.62;;;16.57;40.53
39954;BME280;25631;51.516;-0.470;2022-08-27T05:29:39;101610.15;;;16.75;40.57
39954;BME280;25631;51.516;-0.470;2022-08-27T05:32:16;101610.90;;;16.52;40.59
39954;BME280;25631;51.516;-0.470;2022-08-27T05:34:52;101611.80;;;16.53;40.58
39954;BME280;25631;51.516;-0.470;2022-08-27T05:37:28;101616.86;;;16.42;40.56
39954;BME280;25631;51.516;-0.470;2022-08-27T05:40:06;101620.76;;;16.58;40.53
39954;BME280;25631;51.516;-0.470;2022-08-27T05:42:42;101624.28;;;16.52;40.54
39954;BME280;25631;51.516;-0.470;2022-08-27T05:45:19;101622.16;;;16.53;40.61
39954;BME280;25631;51.516;-0.470;2022-08-27T05:47:56;101632.33;;;16.69;40.64
39954;BME280;25631;51.516;-0.470;2022-08-27T05:50:32;101634.19;;;16.34;40.66
39954;BME280;25631;51.516;-0.470;2022-08-27T05:53:11;101635.74;;;16.51;40.70
39954;BME280;25631;51.516;-0.470;2022-08-27T05:55:47;101636.31;;;16.68;40.80
39954;BME280;25631;51.516;-0.470;2022-08-27T05:58:24;101639.36;;;16.54;40.82
39954;BME280;25631;51.516;-0.470;2022-08-27T06:01:00;101642.04;;;16.46;40.86
39954;BME280;25631;51.516;-0.470;2022-08-27T06:03:37;101644.60;;;16.66;40.87
39954;BME280;25631;51.516;-0.470;2022-08-27T06:06:15;101647.11;;;16.58;40.91
39954;BME280;25631;51.516;-0.470;2022-08-27T06:08:52;101649.13;;;16.60;40.90
39954;BME280;25631;51.516;-0.470;2022-08-27T06:11:29;101648.49;;;16.30;40.87
39954;BME280;25631;51.516;-0.470;2022-08-27T06:14:06;101647.00;;;16.29;40.87
39954;BME280;25631;51.516;-0.470;2022-08-27T06:16:43;101647.25;;;16.16;40.96
39954;BME280;25631;51.516;-0.470;2022-08-27T06:19:20;101648.19;;;16.60;40.98
39954;BME280;25631;51.516;-0.470;2022-08-27T06:21:56;101646.19;;;16.72;41.03
39954;BME280;25631;51.516;-0.470;2022-08-27T06:24:33;101647.68;;;16.50;41.04
39954;BME280;25631;51.516;-0.470;2022-08-27T06:27:12;101647.99;;;16.34;41.03
39954;BME280;25631;51.516;-0.470;2022-08-27T06:29:49;101646.96;;;16.71;41.01
39954;BME280;25631;51.516;-0.470;2022-08-27T06:32:25;101650.42;;;16.57;41.00
39954;BME280;25631;51.516;-0.470;2022-08-27T06:35:01;101650.26;;;16.64;40.94
39954;BME280;25631;51.516;-0.470;2022-08-27T06:37:38;101648.01;;;17.01;40.94
39954;BME280;25631;51.516;-0.470;2022-08-27T06:40:14;101647.30;;;16.78;40.96
39954;BME280;25631;51.516;-0.470;2022-08-27T06:42:50;101648.59;;;16.98;40.95
39954;BME280;25631;51.516;-0.470;2022-08-27T06:45:27;101652.86;;;16.71;40.85
39954;BME280;25631;51.516;-0.470;2022-08-27T06:48:03;101653.58;;;16.84;40.88
39954;BME280;25631;51.516;-0.470;2022-08-27T06:50:41;101656.05;;;16.91;40.89
39954;BME280;25631;51.516;-0.470;2022-08-27T06:53:17;101656.05;;;17.11;40.91
39954;BME280;25631;51.516;-0.470;2022-08-27T06:55:54;101657.09;;;17.13;40.86
39954;BME280;25631;51.516;-0.470;2022-08-27T06:58:31;101658.80;;;17.32;40.76
39954;BME280;25631;51.516;-0.470;2022-08-27T07:01:12;101657.61;;;17.22;40.70
39954;BME280;25631;51.516;-0.470;2022-08-27T07:03:49;101660.11;;;16.99;40.70
39954;BME280;25631;51.516;-0.470;2022-08-27T07:06:27;101661.75;;;17.25;40.61
39954;BME280;25631;51.516;-0.470;2022-08-27T07:09:05;101663.89;;;17.34;40.44
39954;BME280;25631;51.516;-0.470;2022-08-27T07:11:41;101663.86;;;17.33;40.24
39954;BME280;25631;51.516;-0.470;2022-08-27T07:14:18;101664.95;;;17.27;40.09
39954;BME280;25631;51.516;-0.470;2022-08-27T07:16:54;101667.78;;;17.21;39.99
39954;BME280;25631;51.516;-0.470;2022-08-27T07:19:30;101670.45;;;17.49;39.95
39954;BME280;25631;51.516;-0.470;2022-08-27T07:22:07;101671.55;;;17.33;39.92
39954;BME280;25631;51.516;-0.470;2022-08-27T07:24:43;101677.93;;;17.45;39.88
39954;BME280;25631;51.516;-0.470;2022-08-27T07:27:20;101682.47;;;17.25;39.82
39954;BME280;25631;51.516;-0.470;2022-08-27T07:29:57;101679.61;;;17.40;39.77
39954;BME280;25631;51.516;-0.470;2022-08-27T07:32:34;101681.23;;;17.42;39.75
39954;BME280;25631;51.516;-0.470;2022-08-27T07:35:10;101683.98;;;17.60;39.73
39954;BME280;25631;51.516;-0.470;2022-08-27T07:37:47;101687.53;;;17.71;39.66
39954;BME280;25631;51.516;-0.470;2022-08-27T07:40:23;101688.49;;;17.60;39.73
39954;BME280;25631;51.516;-0.470;2022-08-27T07:43:00;101690.58;;;17.42;39.82
39954;BME280;25631;51.516;-0.470;2022-08-27T07:45:43;101691.14;;;17.40;39.81
39954;BME280;25631;51.516;-0.470;2022-08-27T07:48:21;101691.58;;;17.55;39.80
39954;BME280;25631;51.516;-0.470;2022-08-27T07:50:57;101691.00;;;17.57;39.78
39954;BME280;25631;51.516;-0.470;2022-08-27T07:53:34;101692.88;;;17.49;39.67
39954;BME280;25631;51.516;-0.470;2022-08-27T07:56:11;101692.77;;;17.87;39.63
39954;BME280;25631;51.516;-0.470;2022-08-27T07:58:48;101691.96;;;17.80;39.70
39954;BME280;25631;51.516;-0.470;2022-08-27T08:01:25;101690.72;;;17.81;39.71
39954;BME280;25631;51.516;-0.470;2022-08-27T08:04:02;101690.32;;;17.56;39.66
39954;BME280;25631;51.516;-0.470;2022-08-27T08:06:38;101690.52;;;18.00;39.62
39954;BME280;25631;51.516;-0.470;2022-08-27T08:09:15;101692.52;;;18.16;39.57
39954;BME280;25631;51.516;-0.470;2022-08-27T08:11:52;101694.96;;;17.90;39.53
39954;BME280;25631;51.516;-0.470;2022-08-27T08:14:29;101699.88;;;18.26;39.51
39954;BME280;25631;51.516;-0.470;2022-08-27T08:17:05;101702.94;;;17.87;39.32
39954;BME280;25631;51.516;-0.470;2022-08-27T08:19:41;101704.50;;;17.94;39.14
39954;BME280;25631;51.516;-0.470;2022-08-27T08:22:18;101702.66;;;18.42;39.02
39954;BME280;25631;51.516;-0.470;2022-08-27T08:24:54;101704.84;;;18.36;38.83
39954;BME280;25631;51.516;-0.470;2022-08-27T08:27:34;101701.59;;;18.34;38.48
39954;BME280;25631;51.516;-0.470;2022-08-27T08:30:11;101704.62;;;18.38;38.21
39954;BME280;25631;51.516;-0.470;2022-08-27T08:32:47;101707.17;;;18.51;38.10
39954;BME280;25631;51.516;-0.470;2022-08-27T08:35:24;101708.10;;;18.48;38.06
39954;BME280;25631;51.516;-0.470;2022-08-27T08:38:01;101707.23;;;18.61;37.99
39954;BME280;25631;51.516;-0.470;2022-08-27T08:40:40;101706.44;;;18.58;37.61
39954;BME280;25631;51.516;-0.470;2022-08-27T08:43:26;101704.10;;;18.62;37.52
39954;BME280;25631;51.516;-0.470;2022-08-27T08:46:09;101706.22;;;18.73;37.50
39954;BME280;25631;51.516;-0.470;2022-08-27T08:48:50;101704.87;;;18.86;37.14
39954;BME280;25631;51.516;-0.470;2022-08-27T08:51:33;101705.25;;;18.77;36.73
39954;BME280;25631;51.516;-0.470;2022-08-27T08:54:15;101708.70;;;18.92;36.62
39954;BME280;25631;51.516;-0.470;2022-08-27T08:56:58;101707.22;;;19.09;36.45
39954;BME280;25631;51.516;-0.470;2022-08-27T08:59:39;101710.47;;;18.94;36.50
39954;BME280;25631;51.516;-0.470;2022-08-27T09:02:17;101709.54;;;19.14;36.33
39954;BME280;25631;51.516;-0.470;2022-08-27T09:04:53;101710.97;;;18.82;36.23
39954;BME280;25631;51.516;-0.470;2022-08-27T09:07:35;101712.10;;;19.12;36.35
39954;BME280;25631;51.516;-0.470;2022-08-27T09:10:23;101711.32;;;19.34;36.39
39954;BME280;25631;51.516;-0.470;2022-08-27T09:13:03;101709.27;;;19.19;36.19
39954;BME280;25631;51.516;-0.470;2022-08-27T09:15:41;101712.17;;;19.62;36.12
39954;BME280;25631;51.516;-0.470;2022-08-27T09:18:18;101708.87;;;19.33;35.95
39954;BME280;25631;51.516;-0.470;2022-08-27T09:21:00;101708.83;;;19.43;35.71
39954;BME280;25631;51.516;-0.470;2022-08-27T09:23:50;101712.13;;;19.76;35.07
39954;BME280;25631;51.516;-0.470;2022-08-27T09:26:39;101711.16;;;19.60;34.65
39954;BME280;25631;51.516;-0.470;2022-08-27T09:29:16;101712.19;;;19.84;34.65
39954;BME280;25631;51.516;-0.470;2022-08-27T09:31:56;101716.54;;;19.73;34.35
39954;BME280;25631;51.516;-0.470;2022-08-27T09:34:36;101716.51;;;20.00;34.44
39954;BME280;25631;51.516;-0.470;2022-08-27T09:37:14;101711.81;;;19.98;34.61
39954;BME280;25631;51.516;-0.470;2022-08-27T09:39:57;101708.46;;;20.02;34.55
39954;BME280;25631;51.516;-0.470;2022-08-27T09:42:36;101706.03;;;20.05;34.15
39954;BME280;25631;51.516;-0.470;2022-08-27T09:45:18;101704.35;;;20.04;34.20
39954;BME280;25631;51.516;-0.470;2022-08-27T09:48:03;101706.03;;;20.29;33.89
39954;BME280;25631;51.516;-0.470;2022-08-27T09:50:42;101705.16;;;20.23;33.58
39954;BME280;25631;51.516;-0.470;2022-08-27T09:53:25;101701.75;;;20.10;33.41
39954;BME280;25631;51.516;-0.470;2022-08-27T09:56:05;101701.63;;;20.37;33.42
39954;BME280;25631;51.516;-0.470;2022-08-27T09:58:49;101702.82;;;20.46;33.09
39954;BME280;25631;51.516;-0.470;2022-08-27T10:01:28;101704.83;;;20.58;32.71
39954;BME280;25631;51.516;-0.470;2022-08-27T10:04:08;101707.16;;;20.44;32.73
39954;BME280;25631;51.516;-0.470;2022-08-27T10:06:47;101703.50;;;20.84;32.34
39954;BME280;25631;51.516;-0.470;2022-08-27T10:09:29;101700.92;;;20.18;32.17
39954;BME280;25631;51.516;-0.470;2022-08-27T10:12:14;101700.66;;;20.76;32.18
39954;BME280;25631;51.516;-0.470;2022-08-27T10:14:57;101700.80;;;20.93;31.75
39954;BME280;25631;51.516;-0.470;2022-08-27T10:17:43;101702.81;;;20.95;31.45
39954;BME280;25631;51.516;-0.470;2022-08-27T10:20:34;101702.22;;;21.28;31.27
39954;BME280;25631;51.516;-0.470;2022-08-27T10:23:21;101700.98;;;21.22;31.50
39954;BME280;25631;51.516;-0.470;2022-08-27T10:26:07;101699.09;;;21.31;31.28
39954;BME280;25631;51.516;-0.470;2022-08-27T10:28:56;101701.15;;;21.58;31.01
39954;BME280;25631;51.516;-0.470;2022-08-27T10:31:36;101702.81;;;21.58;30.29
39954;BME280;25631;51.516;-0.470;2022-08-27T10:34:26;101701.31;;;21.69;29.53
39954;BME280;25631;51.516;-0.470;2022-08-27T10:37:13;101697.47;;;21.57;29.01
39954;BME280;25631;51.516;-0.470;2022-08-27T10:40:06;101695.04;;;21.87;28.97
39954;BME280;25631;51.516;-0.470;2022-08-27T10:42:52;101692.57;;;21.83;29.28
39954;BME280;25631;51.516;-0.470;2022-08-27T10:45:38;101690.32;;;22.12;29.37
39954;BME280;25631;51.516;-0.470;2022-08-27T10:48:22;101682.99;;;21.87;29.24
39954;BME280;25631;51.516;-0.470;2022-08-27T10:51:10;101681.72;;;21.86;29.48
39954;BME280;25631;51.516;-0.470;2022-08-27T10:53:54;101682.64;;;22.07;29.20
39954;BME280;25631;51.516;-0.470;2022-08-27T10:56:39;101684.72;;;22.29;28.93
39954;BME280;25631;51.516;-0.470;2022-08-27T10:59:24;101680.83;;;22.08;28.90
39954;BME280;25631;51.516;-0.470;2022-08-27T11:02:12;101680.96;;;22.22;28.73
39954;BME280;25631;51.516;-0.470;2022-08-27T11:04:57;101681.75;;;22.24;28.45
39954;BME280;25631;51.516;-0.470;2022-08-27T11:07:39;101679.61;;;22.00;28.31
39954;BME280;25631;51.516;-0.470;2022-08-27T11:10:22;101680.02;;;22.13;28.36
39954;BME280;25631;51.516;-0.470;2022-08-27T11:13:04;101678.06;;;22.45;28.14
39954;BME280;25631;51.516;-0.470;2022-08-27T11:15:44;101675.10;;;22.53;27.72
39954;BME280;25631;51.516;-0.470;2022-08-27T11:18:30;101673.40;;;22.40;27.80
39954;BME280;25631;51.516;-0.470;2022-08-27T11:21:14;101676.56;;;22.48;27.91
39954;BME280;25631;51.516;-0.470;2022-08-27T11:23:54;101672.96;;;22.71;28.00
39954;BME280;25631;51.516;-0.470;2022-08-27T11:26:34;101668.90;;;22.77;27.86
39954;BME280;25631;51.516;-0.470;2022-08-27T11:29:18;101670.35;;;22.92;27.46
39954;BME280;25631;51.516;-0.470;2022-08-27T11:32:03;101670.06;;;22.64;27.11
39954;BME280;25631;51.516;-0.470;2022-08-27T11:34:49;101672.96;;;22.69;27.13
39954;BME280;25631;51.516;-0.470;2022-08-27T11:37:46;101665.36;;;22.73;27.38
39954;BME280;25631;51.516;-0.470;2022-08-27T11:40:37;101662.45;;;22.93;27.17
39954;BME280;25631;51.516;-0.470;2022-08-27T11:43:17;101659.08;;;22.94;27.46
39954;BME280;25631;51.516;-0.470;2022-08-27T11:45:58;101662.12;;;23.08;27.30
39954;BME280;25631;51.516;-0.470;2022-08-27T11:48:38;101666.34;;;22.84;27.09
39954;BME280;25631;51.516;-0.470;2022-08-27T11:51:28;101664.28;;;22.93;27.39
39954;BME280;25631;51.516;-0.470;2022-08-27T11:54:07;101661.50;;;22.98;27.50
39954;BME280;25631;51.516;-0.470;2022-08-27T11:56:44;101659.01;;;23.03;27.51
39954;BME280;25631;51.516;-0.470;2022-08-27T11:59:27;101656.93;;;23.02;27.06
39954;BME280;25631;51.516;-0.470;2022-08-27T12:02:20;101651.20;;;23.58;26.36
39954;BME280;25631;51.516;-0.470;2022-08-27T12:05:07;101652.59;;;23.15;26.58
39954;BME280;25631;51.516;-0.470;2022-08-27T12:07:49;101654.68;;;23.40;26.25
39954;BME280;25631;51.516;-0.470;2022-08-27T12:10:31;101659.71;;;23.63;26.18
39954;BME280;25631;51.516;-0.470;2022-08-27T12:13:19;101657.18;;;23.84;26.06
39954;BME280;25631;51.516;-0.470;2022-08-27T12:16:03;101665.09;;;24.02;26.13
39954;BME280;25631;51.516;-0.470;2022-08-27T12:18:54;101659.72;;;24.07;25.96
39954;BME280;25631;51.516;-0.470;2022-08-27T12:21:42;101660.26;;;23.96;25.35
39954;BME280;25631;51.516;-0.470;2022-08-27T12:24:50;101660.88;;;23.74;25.07
39954;BME280;25631;51.516;-0.470;2022-08-27T12:27:30;101660.10;;;23.69;25.21
39954;BME280;25631;51.516;-0.470;2022-08-27T12:30:20;101663.01;;;23.81;25.11
39954;BME280;25631;51.516;-0.470;2022-08-27T12:32:58;101658.37;;;23.90;25.40
39954;BME280;25631;51.516;-0.470;2022-08-27T12:35:43;101657.32;;;23.92;25.57
39954;BME280;25631;51.516;-0.470;2022-08-27T12:38:37;101654.64;;;23.93;25.65
39954;BME280;25631;51.516;-0.470;2022-08-27T12:41:24;101656.07;;;24.33;25.28
39954;BME280;25631;51.516;-0.470;2022-08-27T12:44:04;101653.29;;;24.40;25.13
39954;BME280;25631;51.516;-0.470;2022-08-27T12:46:46;101648.69;;;24.63;24.77
39954;BME280;25631;51.516;-0.470;2022-08-27T12:49:25;101656.16;;;24.55;24.30
39954;BME280;25631;51.516;-0.470;2022-08-27T12:52:13;101653.68;;;24.82;24.16
39954;BME280;25631;51.516;-0.470;2022-08-27T12:55:03;101648.50;;;24.75;23.85
39954;BME280;25631;51.516;-0.470;2022-08-27T12:57:48;101648.66;;;24.99;23.70
39954;BME280;25631;51.516;-0.470;2022-08-27T13:00:29;101646.00;;;25.15;23.85
39954;BME280;25631;51.516;-0.470;2022-08-27T13:03:22;101644.32;;;25.55;24.19
39954;BME280;25631;51.516;-0.470;2022-08-27T13:06:00;101644.35;;;25.41;24.17
39954;BME280;25631;51.516;-0.470;2022-08-27T13:08:37;101644.33;;;25.77;24.00
39954;BME280;25631;51.516;-0.470;2022-08-27T13:11:17;101642.92;;;25.82;23.65
39954;BME280;25631;51.516;-0.470;2022-08-27T13:14:06;101645.70;;;25.93;23.19
39954;BME280;25631;51.516;-0.470;2022-08-27T13:16:48;101637.11;;;25.95;22.86
39954;BME280;25631;51.516;-0.470;2022-08-27T13:19:27;101634.85;;;25.34;22.45
39954;BME280;25631;51.516;-0.470;2022-08-27T13:22:04;101634.35;;;25.56;22.78
39954;BME280;25631;51.516;-0.470;2022-08-27T13:24:45;101629.60;;;25.09;22.89
39954;BME280;25631;51.516;-0.470;2022-08-27T13:27:24;101627.20;;;24.85;23.46
39954;BME280;25631;51.516;-0.470;2022-08-27T13:30:05;101630.90;;;24.93;24.16
39954;BME280;25631;51.516;-0.470;2022-08-27T13:32:42;101632.70;;;24.47;24.33
39954;BME280;25631;51.516;-0.470;2022-08-27T13:35:19;101630.44;;;24.29;24.40
39954;BME280;25631;51.516;-0.470;2022-08-27T13:37:56;101629.96;;;24.48;24.53
39954;BME280;25631;51.516;-0.470;2022-08-27T13:40:35;101633.01;;;24.32;24.54
39954;BME280;25631;51.516;-0.470;2022-08-27T13:43:14;101632.31;;;24.79;24.29